Time;durP1;ratioP1;P1;durP2;ratioP2;P2;SDS_P1;SDS_P2;PMS_P1;PMS_P2;Temp;Humidity;BMP_temperature;BMP_pressure;BME280_temperature;BME280_humidity;BME280_pressure;Samples;Min_cycle;Max_cycle;Signal;HPM_P1;HPM_P2
2023/03/02 00:02:07;;;;;;;56.95;17.70;;;;;;;0.98;82.69;96241.81;5052651;28;20048;-74
2023/03/02 00:04:39;;;;;;;82.28;18.85;;;;;;;0.96;83.00;96233.22;5053377;28;20055;-74
2023/03/02 00:07:10;;;;;;;62.50;16.58;;;;;;;0.94;82.83;96236.19;5053122;28;20051;-75
2023/03/02 00:09:38;;;;;;;72.03;18.38;;;;;;;0.91;82.95;96227.84;5053244;28;20048;-74
2023/03/02 00:12:06;;;;;;;51.38;16.00;;;;;;;0.89;83.11;96227.25;5052394;28;20496;-74
2023/03/02 00:14:33;;;;;;;67.25;16.98;;;;;;;0.87;83.23;96226.72;5052815;28;20045;-74
2023/03/02 00:17:01;;;;;;;71.43;16.05;;;;;;;0.85;83.22;96224.31;5053327;28;20040;-74
2023/03/02 00:19:27;;;;;;;63.08;16.48;;;;;;;0.84;83.41;96221.91;5052712;28;20119;-74
2023/03/02 00:21:54;;;;;;;66.35;16.70;;;;;;;0.81;83.56;96222.41;5052741;28;20048;-74
2023/03/02 00:24:20;;;;;;;89.05;17.23;;;;;;;0.82;83.69;96226.69;5051355;28;20048;-74
2023/03/02 00:26:48;;;;;;;78.18;17.40;;;;;;;0.81;84.00;96227.78;5045214;28;20045;-74
2023/03/02 00:29:15;;;;;;;75.50;17.88;;;;;;;0.77;83.92;96230.94;5052200;28;20041;-74
2023/03/02 00:31:41;;;;;;;67.70;17.73;;;;;;;0.78;84.20;96227.22;5053609;28;20055;-74
2023/03/02 00:34:08;;;;;;;58.75;17.15;;;;;;;0.75;84.37;96224.25;5055029;28;20037;-74
2023/03/02 00:36:34;;;;;;;60.83;16.52;;;;;;;0.76;84.26;96224.00;5056191;28;20049;-74
2023/03/02 00:39:00;;;;;;;87.53;16.92;;;;;;;0.75;84.20;96225.06;5055295;28;20633;-75
2023/03/02 00:41:27;;;;;;;67.22;17.20;;;;;;;0.74;84.31;96226.13;5053834;28;20484;-74
2023/03/02 00:43:55;;;;;;;43.35;15.38;;;;;;;0.73;84.45;96226.38;5054689;28;20037;-74
2023/03/02 00:46:24;;;;;;;49.90;15.25;;;;;;;0.71;84.65;96229.31;5055384;28;20049;-74
2023/03/02 00:48:51;;;;;;;42.72;16.15;;;;;;;0.61;85.02;96226.56;5047551;28;20045;-74
2023/03/02 00:51:18;;;;;;;58.85;17.13;;;;;;;0.65;85.27;96225.00;5054831;28;20511;-74
2023/03/02 00:53:45;;;;;;;76.10;17.80;;;;;;;0.66;85.19;96225.78;5054945;28;20045;-74
2023/03/02 00:56:11;;;;;;;56.67;16.85;;;;;;;0.63;85.67;96221.78;5055520;28;20060;-74
2023/03/02 00:58:38;;;;;;;56.78;17.05;;;;;;;0.62;86.16;96213.97;5055487;28;20055;-75
2023/03/02 01:01:08;;;;;;;78.95;18.40;;;;;;;0.57;86.95;96211.25;5054823;28;20052;-74
2023/03/02 01:03:34;;;;;;;64.82;16.55;;;;;;;0.60;87.16;96206.19;5055049;28;20067;-75
2023/03/02 01:06:01;;;;;;;65.85;17.23;;;;;;;0.62;87.03;96206.72;5054859;28;20045;-74
2023/03/02 01:08:27;;;;;;;64.40;17.67;;;;;;;0.60;87.17;96200.84;5054571;28;20049;-74
2023/03/02 01:10:53;;;;;;;60.20;17.33;;;;;;;0.54;87.99;96207.22;5054584;28;20048;-74
2023/03/02 01:13:20;;;;;;;60.00;17.73;;;;;;;0.57;88.35;96200.53;5053393;28;20041;-75
2023/03/02 01:15:47;;;;;;;65.43;17.63;;;;;;;0.60;88.01;96200.84;5052788;28;20045;-74
2023/03/02 01:18:14;;;;;;;40.53;15.90;;;;;;;0.65;87.93;96206.22;5052602;28;20080;-74
2023/03/02 01:20:41;;;;;;;53.20;15.98;;;;;;;0.65;87.58;96195.50;5052310;28;20439;-74
2023/03/02 01:23:07;;;;;;;43.88;15.77;;;;;;;0.67;87.38;96192.56;5051913;28;20556;-75
2023/03/02 01:25:34;;;;;;;56.50;16.20;;;;;;;0.67;87.10;96188.00;5052506;28;20492;-74
2023/03/02 01:28:00;;;;;;;55.88;16.63;;;;;;;0.70;86.84;96184.03;5052740;28;20453;-74
2023/03/02 01:30:26;;;;;;;60.83;16.33;;;;;;;0.69;86.94;96182.41;5051648;28;20044;-74
2023/03/02 01:32:53;;;;;;;51.72;15.57;;;;;;;0.69;86.98;96177.84;5051752;28;20048;-75
2023/03/02 01:35:21;;;;;;;48.13;15.07;;;;;;;0.68;86.80;96181.59;5051305;28;20048;-74
2023/03/02 01:37:47;;;;;;;59.53;16.13;;;;;;;0.62;86.70;96166.53;5051705;28;20041;-74
2023/03/02 01:40:14;;;;;;;43.70;15.13;;;;;;;0.61;86.73;96169.50;5051357;28;20037;-74
2023/03/02 01:42:52;;;;;;;52.80;15.38;;;;;;;0.62;86.95;96169.22;5051300;28;20065;-75
2023/03/02 01:45:51;;;;;;;47.78;14.30;;;;;;;0.61;86.53;96154.22;5051313;28;20068;-74
2023/03/02 01:48:23;;;;;;;53.13;15.30;;;;;;;0.59;86.58;96156.34;5051096;28;20123;-74
2023/03/02 01:50:52;;;;;;;51.33;15.50;;;;;;;0.53;86.51;96157.41;5051339;28;20037;-74
2023/03/02 01:53:20;;;;;;;42.45;14.98;;;;;;;0.53;86.55;96154.72;5051012;28;20698;-74
2023/03/02 01:55:47;;;;;;;60.65;16.48;;;;;;;0.51;86.67;96156.84;5051377;28;20053;-74
2023/03/02 01:58:16;;;;;;;54.33;15.70;;;;;;;0.49;86.70;96156.28;5051205;28;20151;-74
2023/03/02 02:00:43;;;;;;;58.70;14.88;;;;;;;0.46;86.72;96160.28;5051089;28;20140;-74
2023/03/02 02:03:14;;;;;;;63.03;16.20;;;;;;;0.45;87.16;96160.56;5050666;28;20104;-74
2023/03/02 02:05:43;;;;;;;51.50;15.90;;;;;;;0.47;87.27;96158.41;5051106;28;20037;-75
2023/03/02 02:08:11;;;;;;;49.03;15.63;;;;;;;0.46;87.43;96148.75;5050648;28;20067;-75
2023/03/02 02:10:39;;;;;;;51.22;15.68;;;;;;;0.46;87.42;96151.44;5049876;28;20045;-74
2023/03/02 02:13:08;;;;;;;53.35;17.60;;;;;;;0.41;87.49;96154.09;5050750;28;20492;-74
2023/03/02 02:15:35;;;;;;;51.25;15.68;;;;;;;0.40;87.77;96147.13;5050702;28;20049;-74
2023/03/02 02:18:01;;;;;;;42.33;16.10;;;;;;;0.37;87.72;96144.97;5051042;28;20048;-74
2023/03/02 02:20:33;;;;;;;55.67;16.98;;;;;;;0.34;87.68;96138.25;5050552;28;20048;-74
2023/03/02 02:23:14;;;;;;;54.58;17.05;;;;;;;0.31;87.82;96138.75;5051172;28;20507;-74
2023/03/02 02:25:54;;;;;;;57.28;16.08;;;;;;;0.28;87.76;96143.84;5050870;28;20041;-74
2023/03/02 02:28:25;;;;;;;63.03;17.55;;;;;;;0.16;88.01;96142.16;5050499;28;20075;-75
2023/03/02 02:31:00;;;;;;;56.60;16.75;;;;;;;0.16;88.51;96131.44;5050477;28;20037;-75
2023/03/02 02:33:27;;;;;;;49.42;14.55;;;;;;;0.21;88.88;96128.81;5050280;28;20041;-75
2023/03/02 02:36:03;;;;;;;64.68;17.20;;;;;;;0.12;89.21;96129.53;5044707;28;20041;-74
2023/03/02 02:38:31;;;;;;;54.58;16.80;;;;;;;0.16;89.29;96126.09;5050326;28;20056;-74
2023/03/02 02:41:03;;;;;;;54.42;16.50;;;;;;;0.16;89.72;96125.28;5049821;28;20514;-74
2023/03/02 02:43:32;;;;;;;49.95;16.48;;;;;;;0.24;90.09;96132.81;5051122;28;20045;-74
2023/03/02 02:45:59;;;;;;;51.28;17.30;;;;;;;0.28;90.19;96125.09;5050661;28;20052;-75
2023/03/02 02:48:29;;;;;;;48.38;17.08;;;;;;;0.24;91.13;96120.25;5050651;28;20048;-74
2023/03/02 02:51:00;;;;;;;46.30;17.08;;;;;;;0.29;91.44;96124.03;5050021;28;20054;-75
2023/03/02 02:53:30;;;;;;;48.42;16.63;;;;;;;0.37;91.46;96128.91;5050260;28;20049;-75
2023/03/02 02:56:00;;;;;;;45.25;17.10;;;;;;;0.42;91.44;96129.75;5043037;28;20052;-75
2023/03/02 02:58:32;;;;;;;49.92;17.35;;;;;;;0.37;91.33;96131.59;5053286;28;20124;-74
2023/03/02 03:01:00;;;;;;;52.90;17.10;;;;;;;0.10;92.57;96126.28;5050234;28;20040;-75
2023/03/02 03:03:29;;;;;;;47.33;17.45;;;;;;;0.07;93.36;96132.97;5051350;28;20041;-75
2023/03/02 03:05:57;;;;;;;42.60;16.95;;;;;;;0.17;92.77;96130.38;5049421;28;20052;-75
2023/03/02 03:08:51;;;;;;;46.88;17.08;;;;;;;0.24;92.53;96128.28;5049906;28;20095;-74
2023/03/02 03:11:23;;;;;;;41.80;17.10;;;;;;;0.13;92.80;96121.25;5049794;28;20114;-74
2023/03/02 03:13:54;;;;;;;48.35;16.38;;;;;;;0.23;92.01;96121.31;5050134;28;20072;-73
2023/03/02 03:16:21;;;;;;;36.08;15.68;;;;;;;0.27;91.18;96116.25;5049733;28;20148;-75
2023/03/02 03:18:50;;;;;;;49.13;16.70;;;;;;;0.25;90.77;96113.81;5049935;28;20053;-74
2023/03/02 03:21:17;;;;;;;46.88;17.27;;;;;;;0.25;90.45;96113.81;5049143;28;20072;-74
2023/03/02 03:23:43;;;;;;;40.72;15.98;;;;;;;0.22;90.19;96122.38;5049848;28;20526;-74
2023/03/02 03:26:10;;;;;;;57.22;16.38;;;;;;;0.14;89.69;96117.50;5049358;28;20056;-75
2023/03/02 03:28:38;;;;;;;42.60;16.45;;;;;;;0.11;89.55;96118.03;5049740;28;20055;-74
2023/03/02 03:31:06;;;;;;;36.65;15.18;;;;;;;0.12;89.56;96118.81;5048362;28;20136;-74
2023/03/02 03:33:32;;;;;;;44.80;16.50;;;;;;;0.12;89.54;96116.94;5049611;28;20052;-74
2023/03/02 03:35:59;;;;;;;41.78;16.33;;;;;;;0.08;89.55;96123.88;5041572;28;20049;-74
2023/03/02 03:38:26;;;;;;;41.70;15.50;;;;;;;0.09;89.60;96120.13;5049289;28;20052;-74
2023/03/02 03:40:52;;;;;;;41.47;16.92;;;;;;;0.09;89.66;96120.13;5049378;28;20045;-74
2023/03/02 03:43:19;;;;;;;40.45;16.70;;;;;;;0.08;90.00;96118.53;5043983;28;20103;-74
2023/03/02 03:45:46;;;;;;;50.25;15.98;;;;;;;0.09;90.02;96114.78;5049122;28;20049;-74
2023/03/02 03:48:13;;;;;;;42.35;16.50;;;;;;;0.08;90.22;96118.53;5049094;28;20048;-73
2023/03/02 03:50:39;;;;;;;41.80;16.67;;;;;;;0.07;90.16;96121.47;5049650;28;20045;-74
2023/03/02 03:53:06;;;;;;;41.47;16.63;;;;;;;0.08;90.04;96113.16;5049131;28;20041;-74
2023/03/02 03:55:32;;;;;;;45.50;18.83;;;;;;;0.09;89.94;96113.97;5049433;28;20186;-74
2023/03/02 03:57:59;;;;;;;50.70;16.40;;;;;;;0.10;90.00;96119.06;5049035;28;20408;-74
2023/03/02 04:00:26;;;;;;;51.42;16.35;;;;;;;0.09;90.15;96114.78;5048901;28;20044;-74
2023/03/02 04:02:53;;;;;;;48.58;17.33;;;;;;;0.12;90.04;96114.28;5049088;28;20459;-74
2023/03/02 04:05:20;;;;;;;39.33;16.98;;;;;;;0.10;90.09;96113.72;5048913;28;20063;-74
2023/03/02 04:07:46;;;;;;;52.33;17.65;;;;;;;0.07;90.05;96116.91;5049426;28;20045;-74
2023/03/02 04:10:13;;;;;;;53.10;17.17;;;;;;;0.08;90.04;96117.72;5048881;28;20052;-74
2023/03/02 04:12:41;;;;;;;40.22;16.88;;;;;;;0.11;89.81;96114.53;5049123;28;20053;-74
2023/03/02 04:15:10;;;;;;;35.83;17.52;;;;;;;-0.11;90.77;96122.66;5048997;28;20044;-74
2023/03/02 04:17:36;;;;;;;38.45;17.52;;;;;;;-0.07;90.65;96118.41;5049271;28;20049;-74
2023/03/02 04:20:06;;;;;;;40.17;17.63;;;;;;;-0.03;90.33;96119.53;5049023;28;20045;-74
2023/03/02 04:22:33;;;;;;;36.42;17.58;;;;;;;-0.10;90.62;96122.41;5049247;28;20044;-74
2023/03/02 04:24:59;;;;;;;47.47;17.50;;;;;;;-0.14;90.79;96118.63;5049157;28;20049;-75
2023/03/02 04:27:25;;;;;;;45.15;17.35;;;;;;;-0.11;90.56;96109.28;5048722;28;20044;-73
2023/03/02 04:29:52;;;;;;;51.53;17.80;;;;;;;-0.21;90.40;96111.88;5048758;28;20064;-74
2023/03/02 04:32:19;;;;;;;47.33;17.38;;;;;;;-0.18;90.20;96106.00;5048319;28;20068;-74
2023/03/02 04:34:45;;;;;;;47.97;17.33;;;;;;;-0.37;90.99;96106.38;5050705;28;20040;-74
2023/03/02 04:37:14;;;;;;;51.78;16.83;;;;;;;-0.47;91.33;96105.50;5052478;28;20049;-74
2023/03/02 04:39:42;;;;;;;62.47;17.63;;;;;;;-0.45;91.04;96098.03;5052805;28;20052;-74
2023/03/02 04:42:08;;;;;;;45.97;16.70;;;;;;;-0.39;91.53;96103.16;5052391;28;20045;-74
2023/03/02 04:44:34;;;;;;;79.13;18.70;;;;;;;-0.41;92.63;96099.97;5051952;28;21715;-74
2023/03/02 04:47:01;;;;;;;59.75;17.77;;;;;;;-0.45;92.67;96106.88;5051672;28;20049;-74
2023/03/02 04:49:27;;;;;;;60.85;17.23;;;;;;;-0.41;92.52;96105.31;5051479;28;20052;-73
2023/03/02 04:51:54;;;;;;;53.88;16.75;;;;;;;-0.36;92.31;96101.88;5052245;28;20118;-75
2023/03/02 04:54:24;;;;;;;58.03;16.77;;;;;;;-0.33;92.43;96104.81;5051674;28;20543;-74
2023/03/02 04:56:51;;;;;;;61.95;16.73;;;;;;;-0.32;92.17;96102.94;5055085;28;20412;-75
2023/03/02 04:59:19;;;;;;;53.72;17.08;;;;;;;-0.29;92.04;96107.81;5053094;28;20041;-74
2023/03/02 05:01:47;;;;;;;65.88;17.10;;;;;;;-0.29;91.71;96097.09;5053006;28;20057;-75
2023/03/02 05:04:14;;;;;;;53.03;16.00;;;;;;;-0.29;91.52;96097.09;5053338;28;20045;-75
2023/03/02 05:06:40;;;;;;;56.30;16.80;;;;;;;-0.29;91.32;96091.75;5053221;28;20052;-74
2023/03/02 05:09:07;;;;;;;65.60;17.73;;;;;;;-0.31;91.26;96088.53;5052351;28;20041;-74
2023/03/02 05:11:35;;;;;;;38.88;15.85;;;;;;;-0.33;91.23;96096.78;5052375;28;20049;-74
2023/03/02 05:14:04;;;;;;;57.85;17.38;;;;;;;-0.32;91.41;96093.06;5051913;28;20412;-75
2023/03/02 05:16:33;;;;;;;51.72;16.75;;;;;;;-0.33;91.32;96096.78;5048399;28;20161;-74
2023/03/02 05:19:00;;;;;;;59.30;16.80;;;;;;;-0.33;91.14;96088.78;5052227;28;20060;-74
2023/03/02 05:21:27;;;;;;;44.92;15.88;;;;;;;-0.34;91.25;96094.38;5051465;28;20052;-74
2023/03/02 05:23:53;;;;;;;64.25;17.02;;;;;;;-0.36;91.26;96091.97;5051968;28;20420;-72
2023/03/02 05:26:20;;;;;;;52.55;16.33;;;;;;;-0.36;91.07;96091.16;5051567;28;20041;-74
2023/03/02 05:28:48;;;;;;;55.97;16.10;;;;;;;-0.38;90.99;96099.44;5051870;28;20053;-74
2023/03/02 05:31:19;;;;;;;58.22;15.88;;;;;;;-0.42;90.85;96087.63;5050812;28;20515;-74
2023/03/02 05:33:45;;;;;;;58.35;16.55;;;;;;;-0.43;90.76;96087.88;5051874;28;20049;-74
2023/03/02 05:36:12;;;;;;;47.42;16.45;;;;;;;-0.45;90.86;96093.50;5051242;28;20045;-74
2023/03/02 05:38:38;;;;;;;49.30;15.77;;;;;;;-0.45;91.04;96103.38;5051568;28;20687;-74
2023/03/02 05:41:05;;;;;;;56.63;16.92;;;;;;;-0.48;91.25;96104.69;5042455;28;20443;-74
2023/03/02 05:43:31;;;;;;;50.20;16.08;;;;;;;-0.47;91.30;96103.66;5051416;28;20103;-74
2023/03/02 05:45:59;;;;;;;53.47;16.20;;;;;;;-0.49;91.38;96108.44;5052156;28;20408;-74
2023/03/02 05:48:26;;;;;;;51.00;17.17;;;;;;;-0.49;91.77;96108.44;5051527;28;20037;-74
2023/03/02 05:50:52;;;;;;;71.68;17.95;;;;;;;-0.46;91.73;96113.28;5051156;28;20044;-74
2023/03/02 05:53:19;;;;;;;60.42;16.70;;;;;;;-0.48;91.57;96110.03;5050980;28;20051;-74
2023/03/02 05:55:45;;;;;;;59.72;16.67;;;;;;;-0.48;91.49;96115.38;5051207;28;20106;-74
2023/03/02 05:58:14;;;;;;;51.60;15.45;;;;;;;-0.48;91.22;96120.72;5051110;28;20041;-74
2023/03/02 06:00:41;;;;;;;62.38;17.40;;;;;;;-0.53;91.11;96113.47;5051069;28;20416;-75
2023/03/02 06:03:09;;;;;;;39.47;16.17;;;;;;;-0.52;91.29;96114.31;5050934;28;20056;-74
2023/03/02 06:05:36;;;;;;;52.63;16.50;;;;;;;-0.51;91.23;96115.91;5051421;28;20049;-75
2023/03/02 06:08:03;;;;;;;55.35;16.48;;;;;;;-0.48;91.55;96115.38;5050741;28;20052;-75
2023/03/02 06:10:30;;;;;;;63.58;18.60;;;;;;;-0.47;91.59;96118.88;5050973;28;20041;-74
2023/03/02 06:12:57;;;;;;;60.33;17.42;;;;;;;-0.44;91.61;96116.50;5051261;28;20053;-77
2023/03/02 06:15:24;;;;;;;60.35;17.98;;;;;;;-0.43;91.77;96110.09;5049874;28;20040;-77
2023/03/02 06:17:51;;;;;;;67.40;18.35;;;;;;;-0.36;91.85;96112.56;5050887;28;20068;-74
2023/03/02 06:20:19;;;;;;;46.30;17.30;;;;;;;-0.33;92.00;96112.03;5050647;28;20068;-74
2023/03/02 06:22:47;;;;;;;67.63;19.25;;;;;;;-0.31;92.09;96116.09;5049940;28;20671;-74
2023/03/02 06:25:16;;;;;;;64.28;18.80;;;;;;;-0.25;92.26;96108.13;5050297;28;20048;-74
2023/03/02 06:27:43;;;;;;;52.72;17.10;;;;;;;-0.21;92.10;96107.31;5050646;28;20045;-74
2023/03/02 06:30:13;;;;;;;55.70;18.98;;;;;;;-0.18;92.24;96109.50;5049978;28;20045;-74
2023/03/02 06:32:40;;;;;;;47.58;18.40;;;;;;;-0.12;91.91;96113.03;5050486;28;20060;-74
2023/03/02 06:35:08;;;;;;;42.55;17.58;;;;;;;-0.08;92.01;96111.44;5049857;28;20055;-74
2023/03/02 06:37:36;;;;;;;60.42;18.25;;;;;;;-0.03;91.54;96111.50;5050192;28;20056;-74
2023/03/02 06:40:07;;;;;;;43.30;16.85;;;;;;;0.04;91.64;96117.41;5049908;28;20057;-75
2023/03/02 06:42:34;;;;;;;61.90;17.98;;;;;;;0.11;91.66;96118.03;5049933;28;20068;-74
2023/03/02 06:45:00;;;;;;;63.55;17.77;;;;;;;0.20;91.67;96127.16;5050082;28;20049;-74
2023/03/02 06:47:27;;;;;;;41.65;15.80;;;;;;;0.32;91.65;96120.84;5048909;28;20059;-74
2023/03/02 06:49:55;;;;;;;50.88;16.33;;;;;;;0.43;91.48;96127.88;5049569;28;20048;-74
2023/03/02 06:52:22;;;;;;;43.08;17.42;;;;;;;0.53;91.43;96130.59;5048902;28;20496;-74
2023/03/02 06:54:49;;;;;;;41.60;16.63;;;;;;;0.65;91.28;96131.19;5049971;28;20072;-74
2023/03/02 06:57:16;;;;;;;41.35;16.25;;;;;;;0.78;91.21;96129.91;5049341;28;20045;-75
2023/03/02 06:59:43;;;;;;;47.75;17.35;;;;;;;0.88;91.02;96129.16;5050443;28;20559;-74
2023/03/02 07:02:10;;;;;;;47.97;15.55;;;;;;;0.99;90.84;96128.94;5041399;28;20439;-75
2023/03/02 07:04:37;;;;;;;51.15;15.70;;;;;;;1.13;90.50;96123.88;5050293;28;20072;-74
2023/03/02 07:07:04;;;;;;;42.88;16.65;;;;;;;1.27;90.10;96130.38;5052431;28;20052;-74
2023/03/02 07:09:32;;;;;;;36.20;16.15;;;;;;;1.37;89.92;96128.78;5050016;28;20407;-73
2023/03/02 07:12:00;;;;;;;44.33;16.20;;;;;;;1.51;89.26;96129.88;5049894;28;20106;-74
2023/03/02 07:14:27;;;;;;;40.55;14.85;;;;;;;1.63;88.69;96133.13;5049557;28;20052;-74
2023/03/02 07:16:56;;;;;;;41.10;15.43;;;;;;;1.76;87.97;96135.28;5050231;28;20060;-74
2023/03/02 07:19:22;;;;;;;38.83;15.40;;;;;;;1.93;87.65;96142.28;5049600;28;20044;-74
2023/03/02 07:21:49;;;;;;;34.53;13.98;;;;;;;2.04;87.19;96133.16;5049876;28;20056;-74
2023/03/02 07:24:15;;;;;;;37.33;14.85;;;;;;;2.16;86.58;96136.38;5049626;28;20471;-74
2023/03/02 07:26:42;;;;;;;37.47;15.23;;;;;;;2.23;85.57;96142.28;5049867;28;20048;-74
2023/03/02 07:29:10;;;;;;;38.75;14.98;;;;;;;2.38;84.87;96143.34;5049768;28;20248;-72
2023/03/02 07:31:36;;;;;;;30.40;14.00;;;;;;;2.55;84.16;96143.84;5050341;28;20561;-74
2023/03/02 07:34:03;;;;;;;37.00;14.57;;;;;;;2.57;82.37;96152.47;5049509;28;20045;-73
2023/03/02 07:36:29;;;;;;;35.08;13.88;;;;;;;2.68;82.03;96151.34;5049881;28;20052;-72
2023/03/02 07:38:56;;;;;;;40.30;14.27;;;;;;;2.87;81.51;96146.19;5049716;28;20081;-72
2023/03/02 07:41:22;;;;;;;31.90;13.77;;;;;;;3.11;81.06;96146.38;5049561;28;20075;-72
2023/03/02 07:43:49;;;;;;;45.60;17.20;;;;;;;3.38;80.06;96149.47;5049794;28;20045;-71
2023/03/02 07:46:17;;;;;;;37.05;15.10;;;;;;;3.92;77.68;96151.31;5049220;28;20052;-72
2023/03/02 07:48:43;;;;;;;36.78;14.40;;;;;;;4.20;75.26;96151.63;5049786;28;20081;-71
2023/03/02 07:51:10;;;;;;;42.55;13.88;;;;;;;4.53;72.46;96149.19;5049169;28;20041;-72
2023/03/02 07:53:37;;;;;;;36.10;14.02;;;;;;;4.69;71.67;96156.03;5050104;28;20083;-72
2023/03/02 07:56:08;;;;;;;38.47;13.38;;;;;;;4.60;72.27;96152.38;5049907;28;20511;-72
2023/03/02 07:58:35;;;;;;;36.33;13.73;;;;;;;4.43;71.18;96144.69;5050674;28;20057;-72
2023/03/02 08:01:01;;;;;;;42.65;14.15;;;;;;;4.36;72.03;96155.81;5051086;28;20114;-74
2023/03/02 08:03:29;;;;;;;31.33;13.07;;;;;;;4.92;70.45;96157.97;5051639;28;20048;-72
2023/03/02 08:05:56;;;;;;;36.20;13.75;;;;;;;5.22;68.52;96161.44;5051089;28;20041;-73
2023/03/02 08:08:22;;;;;;;38.00;13.27;;;;;;;5.28;67.86;96165.66;5054140;28;20049;-72
2023/03/02 08:10:48;;;;;;;37.08;13.00;;;;;;;5.60;66.93;96161.50;5054839;28;20099;-72
2023/03/02 08:13:15;;;;;;;36.10;13.50;;;;;;;5.80;65.85;96168.53;5054608;28;20043;-72
2023/03/02 08:15:41;;;;;;;36.42;12.50;;;;;;;6.15;65.06;96165.28;5054589;28;20053;-72
2023/03/02 08:18:08;;;;;;;37.30;13.50;;;;;;;6.82;62.56;96165.00;5053424;28;20067;-72
2023/03/02 08:20:37;;;;;;;38.78;13.30;;;;;;;7.56;59.24;96163.00;5053359;28;20056;-72
2023/03/02 08:23:03;;;;;;;32.08;12.38;;;;;;;8.81;56.74;96158.75;5052853;28;20511;-73
2023/03/02 08:25:30;;;;;;;31.92;12.85;;;;;;;9.92;52.85;96158.69;5053490;28;20045;-73
2023/03/02 08:27:56;;;;;;;32.60;12.75;;;;;;;10.78;50.15;96152.41;5053200;28;20049;-72
2023/03/02 08:30:23;;;;;;;33.33;12.38;;;;;;;11.76;47.56;96165.00;5052528;28;20523;-72
2023/03/02 08:32:49;;;;;;;30.90;13.10;;;;;;;12.26;45.31;96158.75;5053162;28;20052;-72
2023/03/02 08:35:16;;;;;;;32.63;13.05;;;;;;;12.42;44.40;96150.75;5044437;28;20049;-72
2023/03/02 08:37:44;;;;;;;25.95;11.57;;;;;;;12.58;43.90;96167.34;5053105;28;20045;-72
2023/03/02 08:40:11;;;;;;;27.83;12.25;;;;;;;12.03;44.97;96157.47;5052404;28;20049;-72
2023/03/02 08:42:37;;;;;;;25.13;11.80;;;;;;;11.88;45.30;96158.06;5052920;28;20140;-73
2023/03/02 08:45:05;;;;;;;36.85;13.52;;;;;;;12.01;45.33;96154.31;5052309;28;20053;-72
2023/03/02 08:47:32;;;;;;;30.58;12.18;;;;;;;12.14;45.29;96158.69;5052807;28;20049;-72
2023/03/02 08:49:58;;;;;;;28.95;12.73;;;;;;;11.66;45.31;96153.69;5052420;28;20069;-73
2023/03/02 08:52:25;;;;;;;33.60;12.48;;;;;;;11.69;45.74;96156.56;5052521;28;20037;-72
2023/03/02 08:54:53;;;;;;;26.98;12.48;;;;;;;11.79;44.73;96146.38;5053047;28;20045;-72
2023/03/02 08:57:19;;;;;;;31.30;12.75;;;;;;;11.45;44.72;96148.19;5052495;28;20045;-74
2023/03/02 08:59:45;;;;;;;39.97;13.80;;;;;;;12.25;44.90;96148.16;5052598;28;20630;-74
2023/03/02 09:02:12;;;;;;;29.63;12.40;;;;;;;12.07;45.13;96154.91;5051907;28;20041;-75
2023/03/02 09:04:38;;;;;;;31.80;13.85;;;;;;;11.59;45.42;96148.75;5052385;28;20061;-74
2023/03/02 09:07:05;;;;;;;30.83;12.05;;;;;;;11.64;45.91;96158.66;5052046;28;20095;-74
2023/03/02 09:09:31;;;;;;;26.05;12.35;;;;;;;11.38;46.48;96145.13;5052909;28;20053;-72
2023/03/02 09:12:00;;;;;;;29.88;13.50;;;;;;;11.44;47.44;96152.03;5052781;28;20064;-72
2023/03/02 09:14:27;;;;;;;28.45;12.90;;;;;;;11.03;47.71;96153.47;5052779;28;20583;-72
2023/03/02 09:16:53;;;;;;;31.98;13.10;;;;;;;11.12;47.02;96151.53;5053036;28;20114;-71
2023/03/02 09:19:20;;;;;;;45.25;13.85;;;;;;;10.40;49.07;96146.88;5051481;28;20041;-73
2023/03/02 09:21:46;;;;;;;39.22;14.52;;;;;;;10.27;50.76;96153.25;5052644;28;20055;-72
2023/03/02 09:24:13;;;;;;;33.10;13.27;;;;;;;10.48;50.29;96151.50;5051896;28;20138;-72
2023/03/02 09:26:39;;;;;;;42.70;14.10;;;;;;;10.80;49.37;96154.81;5052157;28;20053;-72
2023/03/02 09:29:07;;;;;;;43.88;13.90;;;;;;;10.96;48.77;96153.16;5051244;28;20045;-72
2023/03/02 09:31:34;;;;;;;49.17;14.55;;;;;;;11.42;48.62;96154.28;5051865;28;20512;-72
2023/03/02 09:34:00;;;;;;;48.17;14.40;;;;;;;11.67;46.94;96152.53;5051795;28;20045;-73
2023/03/02 09:36:27;;;;;;;36.63;13.43;;;;;;;11.57;46.69;96159.16;5051663;28;20052;-72
2023/03/02 09:38:54;;;;;;;40.97;14.20;;;;;;;11.07;48.29;96159.88;5051775;28;20068;-73
2023/03/02 09:41:52;;;;;;;34.50;13.25;;;;;;;10.86;50.62;96167.16;5051265;28;20041;-72
2023/03/02 09:44:40;;;;;;;38.85;14.52;;;;;;;11.49;48.08;96170.94;5047741;28;20041;-72
2023/03/02 09:47:14;;;;;;;37.83;13.95;;;;;;;11.35;48.11;96162.16;5051144;28;20048;-73
2023/03/02 09:49:55;;;;;;;42.05;15.02;;;;;;;11.65;47.91;96161.06;5051561;28;20099;-72
2023/03/02 09:52:31;;;;;;;37.83;14.20;;;;;;;11.65;46.98;96163.78;5051239;28;20041;-72
2023/03/02 09:55:00;;;;;;;34.33;12.50;;;;;;;11.65;47.86;96163.00;5051340;28;20048;-72
2023/03/02 09:57:31;;;;;;;41.40;15.25;;;;;;;11.85;47.45;96165.00;5051266;28;20044;-72
2023/03/02 10:00:03;;;;;;;48.08;15.20;;;;;;;12.20;47.03;96159.28;5051132;28;20056;-72
2023/03/02 10:02:35;;;;;;;47.13;14.48;;;;;;;12.79;44.90;96151.72;5050874;28;20041;-72
2023/03/02 10:05:10;;;;;;;38.20;14.25;;;;;;;13.36;44.05;96157.53;5050607;28;20045;-72
2023/03/02 10:07:38;;;;;;;36.42;13.85;;;;;;;13.53;45.03;96149.91;5051366;28;20105;-72
2023/03/02 10:10:23;;;;;;;38.30;14.00;;;;;;;13.32;43.57;96154.69;5050914;28;20049;-72
2023/03/02 10:12:59;;;;;;;40.15;14.15;;;;;;;13.15;44.34;96146.66;5051274;28;20057;-72
2023/03/02 10:15:36;;;;;;;41.45;13.57;;;;;;;13.70;43.45;96151.63;5050627;28;20056;-72
2023/03/02 10:18:13;;;;;;;39.25;13.60;;;;;;;13.98;42.69;96148.97;5050394;28;20045;-72
2023/03/02 10:20:48;;;;;;;35.78;13.98;;;;;;;13.84;43.33;96145.81;5050941;28;20052;-72
2023/03/02 10:23:27;;;;;;;36.22;12.93;;;;;;;13.39;43.46;96154.13;5049370;28;20056;-72
2023/03/02 10:26:01;;;;;;;37.53;13.10;;;;;;;13.27;44.88;96150.25;5050942;28;20128;-71
2023/03/02 10:28:35;;;;;;;38.72;13.75;;;;;;;12.94;44.13;96142.03;5050454;28;20103;-72
2023/03/02 10:31:08;;;;;;;42.95;14.13;;;;;;;12.55;45.70;96146.16;5049607;28;20492;-72
2023/03/02 10:33:37;;;;;;;35.33;13.55;;;;;;;12.34;45.88;96148.09;5050744;28;20052;-72
2023/03/02 10:36:11;;;;;;;41.10;14.43;;;;;;;12.04;46.52;96153.63;5049758;28;20496;-72
2023/03/02 10:38:38;;;;;;;36.08;12.80;;;;;;;12.03;47.88;96154.75;5050820;28;20052;-72
2023/03/02 10:41:08;;;;;;;37.53;12.85;;;;;;;12.09;47.14;96147.97;5050148;28;20049;-72
2023/03/02 10:43:39;;;;;;;37.63;13.27;;;;;;;11.82;48.26;96148.47;5050653;28;20095;-71
2023/03/02 10:46:09;;;;;;;32.67;12.90;;;;;;;11.51;49.36;96152.31;5049860;28;20409;-72
2023/03/02 10:48:47;;;;;;;32.67;12.80;;;;;;;11.37;48.17;96157.97;5050339;28;20049;-72
2023/03/02 10:51:22;;;;;;;33.75;12.43;;;;;;;11.58;47.65;96146.34;5049934;28;20049;-74
2023/03/02 10:53:49;;;;;;;36.92;12.05;;;;;;;11.64;48.15;96145.84;5050426;28;20045;-73
2023/03/02 10:56:20;;;;;;;27.35;11.50;;;;;;;11.38;49.47;96143.25;5049647;28;20045;-73
2023/03/02 10:58:46;;;;;;;34.85;12.70;;;;;;;11.33;49.20;96142.59;5050506;28;20076;-73
2023/03/02 11:01:18;;;;;;;34.65;12.48;;;;;;;11.15;50.14;96139.94;5049744;28;20091;-74
2023/03/02 11:03:54;;;;;;;36.00;11.70;;;;;;;11.24;49.90;96139.94;5050653;28;20060;-73
2023/03/02 11:06:22;;;;;;;31.67;11.68;;;;;;;11.25;49.88;96141.53;5049881;28;20053;-73
2023/03/02 11:08:58;;;;;;;39.53;13.50;;;;;;;11.22;49.18;96139.44;5051774;28;20049;-73
2023/03/02 11:11:25;;;;;;;25.90;10.88;;;;;;;11.17;49.57;96135.00;5051600;28;20037;-74
2023/03/02 11:13:51;;;;;;;38.85;12.07;;;;;;;11.26;49.50;96134.13;5051848;28;20527;-74
2023/03/02 11:16:27;;;;;;;31.58;11.50;;;;;;;11.23;48.80;96130.16;5049392;28;20041;-74
2023/03/02 11:18:57;;;;;;;27.73;11.65;;;;;;;11.46;48.67;96133.41;5050557;28;20041;-74
2023/03/02 11:21:29;;;;;;;25.30;11.55;;;;;;;11.27;48.19;96131.09;5049581;28;20142;-74
2023/03/02 11:24:04;;;;;;;25.00;10.93;;;;;;;11.34;49.69;96125.13;5050763;28;20094;-73
2023/03/02 11:26:35;;;;;;;30.58;11.48;;;;;;;11.59;48.51;96129.66;5042617;28;20044;-73
2023/03/02 11:29:05;;;;;;;23.58;11.68;;;;;;;11.66;48.64;96120.94;5049381;28;20515;-74